Time;durP1;ratioP1;P1;durP2;ratioP2;P2;SDS_P1;SDS_P2;PMS_P1;PMS_P2;Temp;Humidity;BMP_temperature;BMP_pressure;BME280_temperature;BME280_humidity;BME280_pressure;Samples;Min_cycle;Max_cycle;Signal;HPM_P1;HPM_P2
2022/01/11 00:00:30;;;;;;;49.63;15.00;;;;;;;;;;5154361;27;20079;-79
2022/01/11 00:02:56;;;;;;;37.38;13.02;;;;;;;;;;5134920;27;20078;-79
2022/01/11 00:05:29;;;;;;;56.60;13.65;;;;;;;;;;5134816;27;20078;-79
2022/01/11 00:07:56;;;;;;;39.80;14.40;;;;;;;;;;5152838;27;20054;-79
2022/01/11 00:10:29;;;;;;;72.80;14.65;;;;;;;;;;5135150;27;20055;-79
2022/01/11 00:12:56;;;;;;;50.33;14.73;;;;;;;;;;5128252;27;20086;-79
2022/01/11 00:15:23;;;;;;;62.50;14.88;;;;;;;;;;5134730;27;20119;-79
2022/01/11 00:17:50;;;;;;;53.45;16.42;;;;;;;;;;5133486;27;20051;-79
2022/01/11 00:20:19;;;;;;;66.22;14.52;;;;;;;;;;5133989;27;20063;-79
2022/01/11 00:25:45;;;;;;;48.95;15.18;;;;;;;;;;5096484;27;20044;-79
2022/01/11 00:28:12;;;;;;;46.05;14.50;;;;;;;;;;5150746;27;20518;-79
2022/01/11 00:30:41;;;;;;;45.00;15.23;;;;;;;;;;5134626;27;20582;-79
2022/01/11 00:33:12;;;;;;;65.97;15.38;;;;;;;;;;5134774;27;20505;-79
2022/01/11 00:35:43;;;;;;;41.78;15.18;;;;;;;;;;5119531;27;20467;-79
2022/01/11 00:38:15;;;;;;;47.55;16.00;;;;;;;;;;5139524;27;20090;-79
2022/01/11 00:40:52;;;;;;;49.92;16.05;;;;;;;;;;5153367;27;20083;-79
2022/01/11 00:43:19;;;;;;;45.15;15.32;;;;;;;;;;5152521;27;20051;-79
2022/01/11 00:45:46;;;;;;;48.53;16.60;;;;;;;;;;5142572;27;20498;-79
2022/01/11 00:48:13;;;;;;;45.60;16.23;;;;;;;;;;5122681;27;20585;-79
2022/01/11 00:50:39;;;;;;;49.50;15.85;;;;;;;;;;5143340;27;20630;-79
2022/01/11 00:53:06;;;;;;;60.15;16.33;;;;;;;;;;5146846;27;20055;-79
2022/01/11 00:55:33;;;;;;;58.78;15.65;;;;;;;;;;5126686;27;20498;-79
2022/01/11 00:58:02;;;;;;;45.35;15.63;;;;;;;;;;5118959;27;20063;-79
2022/01/11 01:00:29;;;;;;;61.72;16.02;;;;;;;;;;5134819;27;20546;-79
2022/01/11 01:02:56;;;;;;;56.08;16.67;;;;;;;;;;5131768;27;20127;-79
2022/01/11 01:05:22;;;;;;;57.22;16.90;;;;;;;;;;5131221;27;20044;-79
2022/01/11 01:07:50;;;;;;;71.47;17.40;;;;;;;;;;5133172;27;20051;-79
2022/01/11 01:10:36;;;;;;;51.65;16.52;;;;;;;;;;5153250;27;20137;-79
2022/01/11 01:13:11;;;;;;;49.60;17.40;;;;;;;;;;5133930;27;20063;-79
2022/01/11 01:15:37;;;;;;;57.45;18.08;;;;;;;;;;5150557;27;20111;-79
2022/01/11 01:18:04;;;;;;;60.75;17.27;;;;;;;;;;5173493;27;20039;-79
2022/01/11 01:20:31;;;;;;;53.53;17.17;;;;;;;;;;5128220;27;20105;-79
2022/01/11 01:22:57;;;;;;;51.45;16.67;;;;;;;;;;5144714;27;20055;-79
2022/01/11 01:25:24;;;;;;;52.58;17.00;;;;;;;;;;5152183;27;20124;-79
2022/01/11 01:27:51;;;;;;;51.13;17.42;;;;;;;;;;5152243;27;20153;-79
2022/01/11 01:30:18;;;;;;;51.17;16.10;;;;;;;;;;5133423;27;20047;-79
2022/01/11 01:32:44;;;;;;;56.25;18.48;;;;;;;;;;5152751;27;20079;-79
2022/01/11 01:35:12;;;;;;;50.85;17.45;;;;;;;;;;5133432;27;20051;-79
2022/01/11 01:37:38;;;;;;;53.10;17.13;;;;;;;;;;5137720;27;20052;-79
2022/01/11 01:40:06;;;;;;;49.03;16.30;;;;;;;;;;5113449;27;20105;-79
2022/01/11 01:42:33;;;;;;;52.15;17.65;;;;;;;;;;5122414;27;20090;-79
2022/01/11 01:45:02;;;;;;;47.70;16.85;;;;;;;;;;5142304;27;20128;-79
2022/01/11 01:47:28;;;;;;;45.47;17.25;;;;;;;;;;5133587;27;20051;-79
2022/01/11 01:49:55;;;;;;;49.40;16.52;;;;;;;;;;5130414;27;20091;-79
2022/01/11 01:52:22;;;;;;;46.55;16.73;;;;;;;;;;5138338;27;20139;-79
2022/01/11 01:54:50;;;;;;;44.60;15.93;;;;;;;;;;5119044;27;20048;-79
2022/01/11 01:57:16;;;;;;;51.58;16.50;;;;;;;;;;5132499;27;20399;-79
2022/01/11 01:59:43;;;;;;;45.08;16.52;;;;;;;;;;5132479;27;20094;-79
2022/01/11 02:02:11;;;;;;;43.55;15.82;;;;;;;;;;5131934;27;21247;-79
2022/01/11 02:04:38;;;;;;;40.53;15.48;;;;;;;;;;5118306;27;20059;-79
2022/01/11 02:07:04;;;;;;;47.53;16.80;;;;;;;;;;5140781;27;20070;-79
2022/01/11 02:09:31;;;;;;;44.17;15.85;;;;;;;;;;5150721;27;20051;-79
2022/01/11 02:11:57;;;;;;;44.30;16.00;;;;;;;;;;5121866;27;20510;-79
2022/01/11 02:14:23;;;;;;;44.15;15.82;;;;;;;;;;5145920;27;20099;-79
2022/01/11 02:16:50;;;;;;;46.17;15.88;;;;;;;;;;5133134;27;20104;-79
2022/01/11 02:19:16;;;;;;;50.97;17.08;;;;;;;;;;5130827;27;20971;-79
2022/01/11 02:21:43;;;;;;;42.28;15.63;;;;;;;;;;5145624;27;20082;-79
2022/01/11 02:24:09;;;;;;;42.63;15.45;;;;;;;;;;5126143;27;20566;-79
2022/01/11 02:26:35;;;;;;;45.28;15.40;;;;;;;;;;5126044;27;20100;-79
2022/01/11 02:29:02;;;;;;;37.42;14.18;;;;;;;;;;5132159;27;20047;-79
2022/01/11 02:31:29;;;;;;;36.35;13.63;;;;;;;;;;5144864;27;20082;-79
2022/01/11 02:33:58;;;;;;;42.53;14.52;;;;;;;;;;5158320;27;20054;-79
2022/01/11 02:36:26;;;;;;;39.35;15.02;;;;;;;;;;5140842;27;20043;-79
2022/01/11 02:38:53;;;;;;;34.92;13.25;;;;;;;;;;5138029;27;20055;-79
2022/01/11 02:41:20;;;;;;;41.10;15.50;;;;;;;;;;5139049;27;20051;-79
2022/01/11 02:43:47;;;;;;;36.97;15.15;;;;;;;;;;5142843;27;20051;-79
2022/01/11 02:46:19;;;;;;;44.88;16.02;;;;;;;;;;5152394;27;20051;-79
2022/01/11 02:48:46;;;;;;;39.78;14.98;;;;;;;;;;5157105;27;20058;-79
2022/01/11 02:51:13;;;;;;;42.75;15.23;;;;;;;;;;5147670;27;20055;-79
2022/01/11 02:53:43;;;;;;;39.28;13.38;;;;;;;;;;5133785;27;20888;-79
2022/01/11 02:56:10;;;;;;;44.03;15.60;;;;;;;;;;5115866;27;20090;-79
2022/01/11 02:58:36;;;;;;;40.45;14.85;;;;;;;;;;5127510;27;20063;-79
2022/01/11 03:01:04;;;;;;;47.05;15.27;;;;;;;;;;5115757;27;20075;-79
2022/01/11 03:03:30;;;;;;;41.90;15.32;;;;;;;;;;5132098;27;20419;-79
2022/01/11 03:05:57;;;;;;;42.83;16.10;;;;;;;;;;5132310;27;20051;-79
2022/01/11 03:08:25;;;;;;;41.63;14.93;;;;;;;;;;5141215;27;20069;-79
2022/01/11 03:10:52;;;;;;;34.58;14.50;;;;;;;;;;5132539;27;20053;-79
2022/01/11 03:13:19;;;;;;;40.33;14.38;;;;;;;;;;5132689;27;20047;-79
2022/01/11 03:15:46;;;;;;;35.97;14.38;;;;;;;;;;5132009;27;21074;-79
2022/01/11 03:18:13;;;;;;;43.78;15.48;;;;;;;;;;5139499;27;20040;-79
2022/01/11 03:20:40;;;;;;;44.67;15.48;;;;;;;;;;5141154;27;20138;-79
2022/01/11 03:23:07;;;;;;;37.28;15.15;;;;;;;;;;5113142;27;20048;-79
2022/01/11 03:25:33;;;;;;;41.00;15.50;;;;;;;;;;5150804;27;20051;-79
2022/01/11 03:28:01;;;;;;;42.13;14.65;;;;;;;;;;5151059;27;20547;-79
2022/01/11 03:30:28;;;;;;;45.28;14.57;;;;;;;;;;5130554;27;20650;-79
2022/01/11 03:32:54;;;;;;;40.53;14.07;;;;;;;;;;5132952;27;20110;-79
2022/01/11 03:35:20;;;;;;;39.00;14.70;;;;;;;;;;5136227;27;20061;-79
2022/01/11 03:37:47;;;;;;;43.90;15.75;;;;;;;;;;5152650;27;20109;-79
2022/01/11 03:40:15;;;;;;;43.17;16.45;;;;;;;;;;5160227;27;20073;-79
2022/01/11 03:42:42;;;;;;;45.90;16.42;;;;;;;;;;5137585;27;20055;-79
2022/01/11 03:45:10;;;;;;;42.80;16.20;;;;;;;;;;5133478;27;20051;-79
2022/01/11 03:47:36;;;;;;;43.42;15.63;;;;;;;;;;5137150;27;20109;-79
2022/01/11 03:50:04;;;;;;;49.35;15.30;;;;;;;;;;5149229;27;20083;-79
2022/01/11 03:52:30;;;;;;;48.35;16.38;;;;;;;;;;5140759;27;20087;-79
2022/01/11 03:57:24;;;;;;;46.15;16.23;;;;;;;;;;5141458;27;20050;-79
2022/01/11 03:59:51;;;;;;;48.90;15.35;;;;;;;;;;5135832;27;20075;-79
2022/01/11 04:02:18;;;;;;;47.17;15.07;;;;;;;;;;5118264;27;1039889;-80
2022/01/11 04:04:52;;;;;;;45.67;14.90;;;;;;;;;;5137518;27;20087;-79
2022/01/11 04:07:19;;;;;;;43.25;14.70;;;;;;;;;;5140220;27;20059;-79
2022/01/11 04:09:46;;;;;;;41.00;15.10;;;;;;;;;;5151898;27;20051;-79
2022/01/11 04:12:13;;;;;;;47.40;15.70;;;;;;;;;;5121550;27;20083;-79
2022/01/11 04:14:40;;;;;;;47.25;16.73;;;;;;;;;;5133362;27;20059;-79
2022/01/11 04:17:06;;;;;;;44.95;15.93;;;;;;;;;;5134387;27;20059;-79
2022/01/11 04:19:33;;;;;;;48.28;16.20;;;;;;;;;;5133951;27;20051;-79
2022/01/11 04:21:59;;;;;;;39.65;15.27;;;;;;;;;;5133330;27;20055;-79
2022/01/11 04:24:25;;;;;;;48.75;16.35;;;;;;;;;;5116238;27;20136;-79
2022/01/11 04:26:51;;;;;;;49.17;16.25;;;;;;;;;;5142950;27;20090;-79
2022/01/11 04:29:18;;;;;;;47.70;16.85;;;;;;;;;;5126309;27;20044;-79
2022/01/11 04:31:44;;;;;;;47.25;16.13;;;;;;;;;;5134500;27;20083;-79
2022/01/11 04:34:11;;;;;;;54.15;16.92;;;;;;;;;;5135963;27;20047;-79
2022/01/11 04:36:37;;;;;;;47.38;16.08;;;;;;;;;;5153885;27;20099;-79
2022/01/11 04:39:05;;;;;;;49.92;16.40;;;;;;;;;;5128706;27;20078;-79
2022/01/11 04:41:31;;;;;;;50.53;16.90;;;;;;;;;;5136439;27;20055;-79
2022/01/11 04:43:57;;;;;;;50.80;16.83;;;;;;;;;;5146501;27;20113;-79
2022/01/11 04:46:26;;;;;;;47.80;14.98;;;;;;;;;;5120705;27;20134;-79
2022/01/11 04:48:53;;;;;;;51.10;15.93;;;;;;;;;;5145308;27;20048;-79
2022/01/11 04:51:20;;;;;;;49.17;16.00;;;;;;;;;;5137196;27;20087;-79
2022/01/11 04:53:47;;;;;;;45.45;15.95;;;;;;;;;;5134729;27;20055;-79
2022/01/11 04:56:14;;;;;;;49.75;16.38;;;;;;;;;;5154527;27;20092;-79
2022/01/11 04:58:40;;;;;;;48.20;15.45;;;;;;;;;;5134472;27;20100;-79
2022/01/11 05:01:06;;;;;;;53.75;16.50;;;;;;;;;;5130957;27;20085;-79
2022/01/11 05:03:33;;;;;;;51.40;17.27;;;;;;;;;;5136047;27;20931;-79
2022/01/11 05:06:00;;;;;;;50.08;16.15;;;;;;;;;;5117511;27;20491;-79
2022/01/11 05:08:26;;;;;;;50.55;16.58;;;;;;;;;;5135733;27;20116;-79
2022/01/11 05:10:53;;;;;;;52.90;17.10;;;;;;;;;;5134470;27;20110;-79
2022/01/11 05:13:20;;;;;;;53.13;16.50;;;;;;;;;;5135833;27;20916;-79
2022/01/11 05:15:47;;;;;;;49.97;15.85;;;;;;;;;;5134077;27;20108;-79
2022/01/11 05:18:14;;;;;;;51.83;17.42;;;;;;;;;;5130171;27;20054;-79
2022/01/11 05:20:40;;;;;;;51.90;16.30;;;;;;;;;;5153006;27;20093;-79
2022/01/11 05:23:07;;;;;;;49.70;16.10;;;;;;;;;;5136372;27;20047;-79
2022/01/11 05:25:33;;;;;;;49.55;15.90;;;;;;;;;;5136109;27;20077;-79
2022/01/11 05:28:00;;;;;;;51.72;15.77;;;;;;;;;;5134742;27;20043;-79
2022/01/11 05:30:27;;;;;;;52.83;16.92;;;;;;;;;;5152276;27;20132;-79
2022/01/11 05:32:54;;;;;;;51.58;17.70;;;;;;;;;;5134508;27;20078;-79
2022/01/11 05:35:21;;;;;;;55.95;17.75;;;;;;;;;;5123302;27;20093;-79
2022/01/11 05:37:48;;;;;;;52.15;17.55;;;;;;;;;;5133509;27;20055;-79
2022/01/11 05:40:15;;;;;;;55.75;16.90;;;;;;;;;;5143675;27;20461;-79
2022/01/11 05:42:42;;;;;;;52.38;16.70;;;;;;;;;;5133989;27;20100;-79
2022/01/11 05:45:08;;;;;;;48.83;17.90;;;;;;;;;;5131492;27;20159;-79
2022/01/11 05:47:35;;;;;;;49.25;16.23;;;;;;;;;;5132244;27;20067;-78
2022/01/11 05:50:03;;;;;;;48.92;17.38;;;;;;;;;;5140272;27;20113;-79
2022/01/11 05:52:30;;;;;;;49.05;16.25;;;;;;;;;;5131177;27;20055;-79
2022/01/11 05:54:57;;;;;;;58.97;17.77;;;;;;;;;;5141038;27;20087;-79
2022/01/11 05:57:23;;;;;;;48.92;16.73;;;;;;;;;;5153083;27;20104;-79
2022/01/11 05:59:50;;;;;;;50.45;17.67;;;;;;;;;;5130666;27;20151;-79
2022/01/11 06:02:16;;;;;;;50.47;17.77;;;;;;;;;;5148702;27;20358;-77
2022/01/11 06:04:42;;;;;;;52.13;16.88;;;;;;;;;;5139333;27;20057;-77
2022/01/11 06:07:09;;;;;;;49.15;16.05;;;;;;;;;;5131073;27;20059;-77
2022/01/11 06:09:35;;;;;;;51.03;17.02;;;;;;;;;;5140402;27;20043;-77
2022/01/11 06:12:01;;;;;;;58.38;17.95;;;;;;;;;;5146168;27;20055;-77
2022/01/11 06:14:28;;;;;;;52.67;17.08;;;;;;;;;;5127555;27;20079;-77
2022/01/11 06:16:54;;;;;;;52.13;18.13;;;;;;;;;;5130289;27;20108;-77
2022/01/11 06:19:23;;;;;;;55.30;16.98;;;;;;;;;;5120190;27;20055;-77
2022/01/11 06:21:50;;;;;;;59.67;18.40;;;;;;;;;;5148504;27;20529;-77
2022/01/11 06:24:16;;;;;;;56.15;17.42;;;;;;;;;;5148325;27;20606;-77
2022/01/11 06:26:42;;;;;;;52.88;17.50;;;;;;;;;;5115634;27;20075;-77
2022/01/11 06:29:09;;;;;;;52.15;17.63;;;;;;;;;;5110685;27;20086;-77
2022/01/11 06:31:35;;;;;;;45.05;16.65;;;;;;;;;;5114021;27;20108;-77
2022/01/11 06:34:02;;;;;;;59.30;19.08;;;;;;;;;;5126929;27;20130;-77
2022/01/11 06:36:29;;;;;;;53.80;16.98;;;;;;;;;;5144967;27;20118;-77
2022/01/11 06:38:56;;;;;;;51.55;16.92;;;;;;;;;;5145340;27;20083;-77
2022/01/11 06:41:22;;;;;;;58.38;17.58;;;;;;;;;;5125192;27;20083;-77
2022/01/11 06:43:50;;;;;;;53.60;18.00;;;;;;;;;;5116350;27;20091;-77
2022/01/11 06:46:17;;;;;;;56.10;18.88;;;;;;;;;;5135941;27;20063;-78
2022/01/11 06:48:43;;;;;;;49.83;17.38;;;;;;;;;;5121372;27;20993;-77
2022/01/11 06:51:10;;;;;;;56.60;17.90;;;;;;;;;;5118502;27;20083;-77
2022/01/11 06:53:36;;;;;;;50.90;17.77;;;;;;;;;;5126768;27;20048;-77
2022/01/11 06:56:02;;;;;;;49.75;17.63;;;;;;;;;;5146801;27;20051;-77
2022/01/11 06:58:29;;;;;;;61.95;17.95;;;;;;;;;;5126821;27;20127;-77
2022/01/11 07:00:55;;;;;;;51.50;17.92;;;;;;;;;;5117189;27;20090;-78
2022/01/11 07:03:24;;;;;;;58.72;18.55;;;;;;;;;;5130941;27;20513;-77
2022/01/11 07:05:50;;;;;;;53.83;18.50;;;;;;;;;;5147916;27;20059;-77
2022/01/11 07:08:17;;;;;;;57.97;18.40;;;;;;;;;;5149503;27;20044;-77
2022/01/11 07:10:43;;;;;;;56.08;19.70;;;;;;;;;;5137872;27;20079;-78
2022/01/11 07:13:10;;;;;;;53.13;17.40;;;;;;;;;;5128677;27;20073;-78
2022/01/11 07:15:36;;;;;;;56.38;18.90;;;;;;;;;;5121435;27;20674;-78
2022/01/11 07:18:08;;;;;;;55.38;18.77;;;;;;;;;;5126444;27;20168;-78
2022/01/11 07:20:35;;;;;;;55.67;17.90;;;;;;;;;;5127713;27;20052;-78
2022/01/11 07:23:01;;;;;;;59.88;19.13;;;;;;;;;;5125826;27;20143;-78
2022/01/11 07:25:30;;;;;;;53.85;19.42;;;;;;;;;;5137187;27;20461;-78
2022/01/11 07:27:57;;;;;;;49.38;16.45;;;;;;;;;;5149984;27;20042;-78
2022/01/11 07:30:24;;;;;;;49.53;18.15;;;;;;;;;;5125305;27;20040;-78
2022/01/11 07:32:50;;;;;;;48.15;17.58;;;;;;;;;;5140587;27;20082;-78
2022/01/11 07:35:17;;;;;;;46.15;16.95;;;;;;;;;;5142347;27;20464;-78
2022/01/11 07:37:43;;;;;;;46.72;17.15;;;;;;;;;;5146789;27;20055;-77
2022/01/11 07:40:10;;;;;;;49.63;17.83;;;;;;;;;;5146614;27;20075;-78
2022/01/11 07:42:36;;;;;;;51.45;17.92;;;;;;;;;;5142308;27;20900;-78
2022/01/11 07:45:03;;;;;;;46.40;15.43;;;;;;;;;;5145638;27;20424;-78
2022/01/11 07:47:29;;;;;;;51.00;17.08;;;;;;;;;;5132494;27;20639;-78
2022/01/11 07:49:57;;;;;;;43.42;16.60;;;;;;;;;;5151328;27;20047;-78
2022/01/11 07:52:23;;;;;;;49.92;16.75;;;;;;;;;;5124262;27;20051;-77
2022/01/11 07:54:49;;;;;;;45.28;15.60;;;;;;;;;;5133110;27;20120;-78
2022/01/11 07:57:16;;;;;;;47.63;16.05;;;;;;;;;;5148959;27;20472;-78
2022/01/11 07:59:42;;;;;;;45.42;16.23;;;;;;;;;;5129542;27;20048;-78
2022/01/11 08:02:24;;;;;;;46.92;18.17;;;;;;;;;;5147367;27;20097;-78
2022/01/11 08:04:53;;;;;;;46.92;16.92;;;;;;;;;;5148155;27;20051;-78
2022/01/11 08:07:20;;;;;;;40.65;16.65;;;;;;;;;;5146597;27;20044;-78
2022/01/11 08:09:46;;;;;;;51.00;16.15;;;;;;;;;;5126897;27;20083;-78
2022/01/11 08:12:12;;;;;;;45.50;16.25;;;;;;;;;;5148136;27;20505;-78
2022/01/11 08:14:39;;;;;;;48.47;17.08;;;;;;;;;;5150361;27;20059;-78
2022/01/11 08:17:05;;;;;;;44.05;16.48;;;;;;;;;;5134006;27;20051;-78
2022/01/11 08:19:32;;;;;;;38.35;16.40;;;;;;;;;;5132705;27;20498;-78
2022/01/11 08:21:58;;;;;;;42.85;16.40;;;;;;;;;;5132249;27;20050;-78
2022/01/11 08:24:25;;;;;;;43.25;15.80;;;;;;;;;;5138048;27;20103;-77
2022/01/11 08:26:52;;;;;;;40.10;15.10;;;;;;;;;;5169720;27;20051;-78
2022/01/11 08:29:22;;;;;;;45.03;15.65;;;;;;;;;;5131710;27;20090;-78
2022/01/11 08:31:50;;;;;;;42.95;15.98;;;;;;;;;;5148300;27;20850;-78
2022/01/11 08:34:17;;;;;;;39.97;15.20;;;;;;;;;;5157601;27;20039;-78
2022/01/11 08:36:44;;;;;;;39.47;15.20;;;;;;;;;;5145031;27;20039;-78
2022/01/11 08:39:13;;;;;;;38.35;14.65;;;;;;;;;;5170218;27;20059;-78
2022/01/11 08:41:43;;;;;;;34.47;13.57;;;;;;;;;;5148940;27;20560;-77
2022/01/11 08:44:10;;;;;;;49.67;17.13;;;;;;;;;;5139782;27;20059;-78
2022/01/11 08:46:37;;;;;;;37.50;14.60;;;;;;;;;;5141024;27;20089;-78
2022/01/11 08:49:04;;;;;;;40.40;15.85;;;;;;;;;;5159601;27;20498;-78
2022/01/11 08:51:30;;;;;;;42.42;15.18;;;;;;;;;;5135550;27;20113;-78
2022/01/11 08:53:57;;;;;;;39.17;15.77;;;;;;;;;;5145722;27;20068;-78
2022/01/11 08:56:23;;;;;;;36.72;14.93;;;;;;;;;;5171284;27;20046;-78
2022/01/11 08:58:50;;;;;;;36.80;14.32;;;;;;;;;;5136391;27;20087;-78
2022/01/11 09:01:16;;;;;;;39.70;14.60;;;;;;;;;;5133035;27;20062;-77
2022/01/11 09:03:43;;;;;;;36.15;14.38;;;;;;;;;;5132157;27;20059;-78
2022/01/11 09:06:12;;;;;;;35.20;13.80;;;;;;;;;;5128435;27;20053;-78
2022/01/11 09:08:39;;;;;;;38.35;14.57;;;;;;;;;;5149746;27;20055;-78
2022/01/11 09:11:06;;;;;;;35.60;14.15;;;;;;;;;;5147548;27;20059;-78
2022/01/11 09:13:33;;;;;;;40.67;14.98;;;;;;;;;;5153400;27;20047;-78
2022/01/11 09:16:00;;;;;;;41.00;15.35;;;;;;;;;;5133325;27;20043;-78
2022/01/11 09:18:29;;;;;;;39.47;15.15;;;;;;;;;;5157153;27;20483;-78
2022/01/11 09:21:00;;;;;;;34.40;13.93;;;;;;;;;;5135336;27;21107;-78
2022/01/11 09:23:27;;;;;;;37.22;14.57;;;;;;;;;;5132974;27;20496;-78
2022/01/11 09:25:53;;;;;;;35.70;14.27;;;;;;;;;;5129796;27;20059;-79
2022/01/11 09:28:20;;;;;;;35.42;14.82;;;;;;;;;;5134950;27;20084;-79
2022/01/11 09:30:47;;;;;;;35.53;13.32;;;;;;;;;;5156106;27;20075;-78
2022/01/11 09:33:13;;;;;;;36.53;14.13;;;;;;;;;;5142828;27;20048;-78
2022/01/11 09:35:40;;;;;;;35.08;14.13;;;;;;;;;;5143571;27;20533;-78
2022/01/11 09:38:06;;;;;;;32.03;13.65;;;;;;;;;;5140743;27;20112;-78
2022/01/11 09:40:33;;;;;;;35.22;14.30;;;;;;;;;;5151386;27;20055;-78
2022/01/11 09:42:59;;;;;;;32.47;13.82;;;;;;;;;;5124389;27;20051;-78
2022/01/11 09:45:26;;;;;;;33.05;13.82;;;;;;;;;;5132401;27;20055;-78
2022/01/11 09:47:58;;;;;;;33.17;13.60;;;;;;;;;;5146339;27;20060;-78
2022/01/11 09:50:25;;;;;;;33.72;13.80;;;;;;;;;;5126107;27;20050;-78
2022/01/11 09:52:51;;;;;;;35.33;12.20;;;;;;;;;;5134137;27;20047;-78
2022/01/11 09:55:18;;;;;;;35.53;14.18;;;;;;;;;;5149254;27;20375;-78
2022/01/11 09:57:44;;;;;;;31.55;13.13;;;;;;;;;;5126821;27;20146;-79
2022/01/11 10:00:11;;;;;;;34.10;13.48;;;;;;;;;;5133896;27;20112;-76
2022/01/11 10:02:38;;;;;;;37.03;13.25;;;;;;;;;;5132774;27;20051;-78
2022/01/11 10:05:06;;;;;;;29.80;12.70;;;;;;;;;;5147811;27;20048;-78
2022/01/11 10:07:34;;;;;;;32.08;13.48;;;;;;;;;;5127999;27;20047;-78
2022/01/11 10:10:00;;;;;;;37.53;13.32;;;;;;;;;;5150383;27;20090;-78
2022/01/11 10:12:29;;;;;;;33.58;13.18;;;;;;;;;;5135767;27;20047;-78
2022/01/11 10:14:57;;;;;;;35.10;13.55;;;;;;;;;;5134431;27;20079;-78
2022/01/11 10:17:25;;;;;;;31.98;12.43;;;;;;;;;;5132561;27;20051;-78
2022/01/11 10:20:00;;;;;;;30.40;12.65;;;;;;;;;;5126478;27;20055;-77
2022/01/11 10:22:27;;;;;;;32.30;13.50;;;;;;;;;;5136526;27;20104;-78
2022/01/11 10:24:54;;;;;;;31.40;12.80;;;;;;;;;;5144303;27;20054;-77
2022/01/11 10:27:26;;;;;;;34.22;13.35;;;;;;;;;;5130836;27;20047;-77
2022/01/11 10:29:55;;;;;;;29.02;12.30;;;;;;;;;;5131794;27;20058;-77
2022/01/11 10:32:24;;;;;;;29.17;11.98;;;;;;;;;;5138480;27;20528;-78
2022/01/11 10:34:53;;;;;;;26.35;11.70;;;;;;;;;;5149227;27;20493;-77
2022/01/11 10:37:30;;;;;;;26.73;12.23;;;;;;;;;;5149839;27;20062;-78
2022/01/11 10:40:00;;;;;;;27.20;13.00;;;;;;;;;;5152367;27;20055;-78
2022/01/11 10:42:30;;;;;;;24.25;11.27;;;;;;;;;;5148893;27;20519;-79
2022/01/11 10:44:59;;;;;;;31.58;11.68;;;;;;;;;;5136749;27;20091;-79
2022/01/11 10:47:27;;;;;;;27.00;11.63;;;;;;;;;;5146268;27;20086;-80
2022/01/11 10:49:55;;;;;;;26.88;11.02;;;;;;;;;;5130230;27;20051;-80
2022/01/11 10:52:26;;;;;;;28.25;12.35;;;;;;;;;;5147815;27;20135;-78
2022/01/11 10:54:52;;;;;;;;;;;;;;;;;;5128784;27;20039;-78
2022/01/11 10:57:24;;;;;;;30.20;12.30;;;;;;;;;;5145458;27;45613;-78
2022/01/11 11:00:06;;;;;;;27.33;12.25;;;;;;;;;;5148341;27;20039;-78
2022/01/11 11:02:33;;;;;;;26.55;11.25;;;;;;;;;;5135477;27;20104;-78
2022/01/11 11:05:09;;;;;;;23.98;10.70;;;;;;;;;;5134525;27;20043;-78
2022/01/11 11:07:38;;;;;;;26.98;11.52;;;;;;;;;;5133878;27;20664;-78
2022/01/11 11:10:05;;;;;;;25.63;11.57;;;;;;;;;;5147937;27;20055;-79
2022/01/11 11:12:31;;;;;;;29.05;13.15;;;;;;;;;;5139111;27;20066;-78
2022/01/11 11:14:59;;;;;;;26.08;11.70;;;;;;;;;;5150242;27;20754;-78
2022/01/11 11:17:30;;;;;;;24.13;10.60;;;;;;;;;;5139393;27;20054;-78
2022/01/11 11:20:08;;;;;;;31.30;12.25;;;;;;;;;;5132026;27;20035;-78
2022/01/11 11:22:34;;;;;;;25.50;11.43;;;;;;;;;;5156441;27;20039;-78
2022/01/11 11:25:02;;;;;;;23.55;11.10;;;;;;;;;;5132560;27;20108;-78
2022/01/11 11:27:30;;;;;;;26.05;11.88;;;;;;;;;;5138726;27;20059;-78
2022/01/11 11:29:59;;;;;;;23.23;11.02;;;;;;;;;;5138666;27;20055;-78
2022/01/11 11:32:25;;;;;;;29.35;11.68;;;;;;;;;;5129524;27;20052;-78
2022/01/11 11:34:52;;;;;;;27.70;11.45;;;;;;;;;;5137896;27;20112;-78
2022/01/11 11:37:21;;;;;;;24.00;11.07;;;;;;;;;;5138994;27;20039;-78
2022/01/11 11:39:53;;;;;;;26.58;12.55;;;;;;;;;;5154499;27;20069;-78
2022/01/11 11:42:21;;;;;;;27.77;11.02;;;;;;;;;;5153232;27;20109;-81
2022/01/11 11:44:48;;;;;;;23.48;11.43;;;;;;;;;;5149828;27;20047;-78
2022/01/11 11:47:14;;;;;;;26.48;11.98;;;;;;;;;;5153335;27;20569;-78
2022/01/11 11:49:45;;;;;;;25.50;11.38;;;;;;;;;;5153899;27;20065;-78
2022/01/11 11:52:14;;;;;;;25.40;11.30;;;;;;;;;;5137010;27;20065;-78
2022/01/11 11:55:07;;;;;;;22.40;10.20;;;;;;;;;;5157152;27;20062;-78
2022/01/11 11:57:35;;;;;;;26.77;11.68;;;;;;;;;;5152232;27;20075;-78
2022/01/11 12:00:01;;;;;;;23.52;10.57;;;;;;;;;;5139827;27;20086;-78
2022/01/11 12:02:30;;;;;;;26.55;10.73;;;;;;;;;;5133230;27;20056;-78
2022/01/11 12:04:57;;;;;;;24.67;10.35;;;;;;;;;;5126923;27;20057;-78
2022/01/11 12:07:32;;;;;;;22.70;10.00;;;;;;;;;;5131485;27;20031;-78
2022/01/11 12:09:59;;;;;;;28.52;10.90;;;;;;;;;;5135246;27;20039;-78
2022/01/11 12:12:38;;;;;;;25.02;11.30;;;;;;;;;;5133547;27;20104;-78
2022/01/11 12:15:23;;;;;;;23.98;10.25;;;;;;;;;;5137882;27;20051;-78
2022/01/11 12:17:59;;;;;;;26.70;10.73;;;;;;;;;;5139826;27;20070;-78
2022/01/11 12:20:44;;;;;;;20.85;10.10;;;;;;;;;;5157207;27;20059;-78
2022/01/11 12:23:20;;;;;;;23.63;9.95;;;;;;;;;;5146511;27;20094;-78
2022/01/11 12:25:53;;;;;;;26.10;10.90;;;;;;;;;;5151019;27;20051;-78
2022/01/11 12:28:21;;;;;;;30.38;10.40;;;;;;;;;;5135811;27;20059;-78
2022/01/11 12:30:48;;;;;;;26.60;9.73;;;;;;;;;;5146413;27;20055;-78
2022/01/11 12:33:24;;;;;;;24.13;10.77;;;;;;;;;;5146371;27;20043;-78
2022/01/11 12:35:50;;;;;;;21.83;10.18;;;;;;;;;;5144400;27;20120;-78
2022/01/11 12:38:16;;;;;;;20.45;10.15;;;;;;;;;;5143109;27;20097;-78
2022/01/11 12:40:44;;;;;;;24.48;10.25;;;;;;;;;;5136019;27;20055;-78
2022/01/11 12:43:17;;;;;;;26.40;10.90;;;;;;;;;;5145946;27;20079;-78
2022/01/11 12:45:54;;;;;;;24.30;10.65;;;;;;;;;;5135460;27;20059;-78
2022/01/11 12:48:40;;;;;;;21.92;9.98;;;;;;;;;;5130587;27;20063;-78
2022/01/11 12:51:06;;;;;;;22.50;10.05;;;;;;;;;;5152143;27;20055;-77
2022/01/11 12:53:33;;;;;;;22.77;10.40;;;;;;;;;;5149236;27;20048;-77
2022/01/11 12:55:59;;;;;;;22.90;10.77;;;;;;;;;;5149220;27;20040;-78
2022/01/11 12:58:25;;;;;;;21.45;9.85;;;;;;;;;;5126015;27;20051;-78
2022/01/11 13:00:52;;;;;;;23.00;10.05;;;;;;;;;;5137280;27;20176;-78
2022/01/11 13:03:18;;;;;;;21.63;10.02;;;;;;;;;;5120490;27;20054;-78
2022/01/11 13:05:45;;;;;;;20.15;9.32;;;;;;;;;;5143625;27;20090;-78
2022/01/11 13:08:25;;;;;;;19.20;9.77;;;;;;;;;;5132989;27;20051;-78
2022/01/11 13:10:52;;;;;;;22.02;9.27;;;;;;;;;;5139273;27;20085;-78
2022/01/11 13:13:23;;;;;;;20.65;8.52;;;;;;;;;;5119831;27;20138;-78
2022/01/11 13:15:50;;;;;;;;;;;;;;;;;;5113847;27;20516;-78
2022/01/11 13:18:21;;;;;;;22.45;9.40;;;;;;;;;;5122849;27;44679;-78
2022/01/11 13:20:58;;;;;;;19.05;8.55;;;;;;;;;;5126442;27;20524;-78
2022/01/11 13:23:44;;;;;;;20.92;8.43;;;;;;;;;;5134215;27;20125;-78
2022/01/11 13:26:12;;;;;;;17.50;7.82;;;;;;;;;;5148887;27;20468;-77
2022/01/11 13:28:52;;;;;;;20.05;8.80;;;;;;;;;;5152719;27;20055;-78
2022/01/11 13:31:28;;;;;;;17.73;8.20;;;;;;;;;;5128231;27;20498;-78
2022/01/11 13:34:10;;;;;;;18.55;9.05;;;;;;;;;;5130701;27;20519;-78
2022/01/11 13:36:40;;;;;;;20.40;9.25;;;;;;;;;;5127196;27;20048;-78
2022/01/11 13:39:13;;;;;;;19.00;8.07;;;;;;;;;;5143224;27;20519;-78
2022/01/11 13:41:48;;;;;;;19.45;8.13;;;;;;;;;;5132383;27;20074;-78
2022/01/11 13:44:19;;;;;;;19.35;9.45;;;;;;;;;;5122078;27;20063;-78
2022/01/11 13:46:48;;;;;;;16.85;7.18;;;;;;;;;;5133139;27;20206;-78
2022/01/11 13:49:17;;;;;;;19.15;8.18;;;;;;;;;;5127148;27;20083;-78
2022/01/11 13:51:46;;;;;;;16.45;7.53;;;;;;;;;;5131218;27;20051;-78
2022/01/11 13:54:14;;;;;;;16.02;8.30;;;;;;;;;;5150000;27;20055;-78
2022/01/11 13:56:46;;;;;;;17.92;7.30;;;;;;;;;;5122907;27;20066;-78
2022/01/11 13:59:15;;;;;;;19.17;8.27;;;;;;;;;;5146493;27;20051;-78
2022/01/11 14:01:43;;;;;;;18.52;8.10;;;;;;;;;;5131352;27;20100;-78
2022/01/11 14:04:13;;;;;;;18.88;7.65;;;;;;;;;;5133150;27;20051;-78
2022/01/11 14:06:41;;;;;;;18.15;8.25;;;;;;;;;;5155331;27;20055;-78
2022/01/11 14:09:11;;;;;;;15.93;7.28;;;;;;;;;;5156773;27;20072;-78
2022/01/11 14:11:40;;;;;;;20.90;8.30;;;;;;;;;;5155611;27;20094;-78
2022/01/11 14:14:06;;;;;;;14.80;7.68;;;;;;;;;;5138584;27;20096;-78
2022/01/11 14:16:54;;;;;;;17.42;8.27;;;;;;;;;;5138590;27;20130;-78
2022/01/11 14:19:21;;;;;;;19.67;7.68;;;;;;;;;;5156353;27;20058;-78
2022/01/11 14:21:49;;;;;;;16.80;8.27;;;;;;;;;;5150838;27;20095;-78
2022/01/11 14:24:18;;;;;;;;;;;;;;;;;;5134868;27;20087;-78
2022/01/11 14:26:45;;;;;;;18.42;7.88;;;;;;;;;;5144283;27;44579;-78
2022/01/11 14:29:30;;;;;;;19.90;7.35;;;;;;;;;;5131203;27;20058;-78